River Hebert, Canada
Current Conditions -  °F | °C
As of 10:00 AM on Thursday 30 Oct 2014 (Local Time) from CYQM Reporting Station
Few Clouds Few Clouds  
Wind Chill: 42°   Ceiling: Unl
Heat Index: 48°   Visibility: 15mi
Dew Point: 41°   Wind: 15mph
Humidity: 76%   Direction: 250°WSW
Pressure: 29.78"   Gusts: 21mph
Location:  45.68°N, 64.38°W
Report Text: CYQM 301300Z 25013G18KT 15SM FEW012 FEW140 09/05 A2978 RMK CF1AC1 CF TR SLP085
Loading
Personal Weather Stations






























Interactive Weather Map
Tropical Storm Tracking
New forecast layout! Learn more

10-Day Weather Forecast

Advertisements
Track Severe Weather on mobile